sensor_id;sensor_type;location;lat;lon;timestamp;P1;durP1;ratioP1;P2;durP2;ratioP2
22849;SDS011;11591;44.792;10.358;2023-03-23T00:01:29;4.25;;;3.00;;
22849;SDS011;11591;44.792;10.358;2023-03-23T00:03:56;6.88;;;3.15;;
22849;SDS011;11591;44.792;10.358;2023-03-23T00:06:23;3.78;;;2.85;;
22849;SDS011;11591;44.792;10.358;2023-03-23T00:08:51;4.35;;;3.17;;
22849;SDS011;11591;44.792;10.358;2023-03-23T00:11:25;7.38;;;3.70;;
22849;SDS011;11591;44.792;10.358;2023-03-23T00:13:54;9.45;;;5.22;;
22849;SDS011;11591;44.792;10.358;2023-03-23T00:16:23;10.40;;;6.10;;
22849;SDS011;11591;44.792;10.358;2023-03-23T00:19:04;11.05;;;5.38;;
22849;SDS011;11591;44.792;10.358;2023-03-23T00:21:34;12.23;;;5.75;;
22849;SDS011;11591;44.792;10.358;2023-03-23T00:26:29;5.63;;;4.00;;
22849;SDS011;11591;44.792;10.358;2023-03-23T00:28:59;7.15;;;3.72;;
22849;SDS011;11591;44.792;10.358;2023-03-23T00:31:26;5.72;;;3.70;;
22849;SDS011;11591;44.792;10.358;2023-03-23T00:34:02;6.03;;;3.88;;
22849;SDS011;11591;44.792;10.358;2023-03-23T00:36:29;9.63;;;3.60;;
22849;SDS011;11591;44.792;10.358;2023-03-23T00:38:57;5.68;;;3.22;;
22849;SDS011;11591;44.792;10.358;2023-03-23T00:41:24;5.05;;;3.08;;
22849;SDS011;11591;44.792;10.358;2023-03-23T00:43:57;5.07;;;3.13;;
22849;SDS011;11591;44.792;10.358;2023-03-23T00:46:25;6.97;;;3.55;;
22849;SDS011;11591;44.792;10.358;2023-03-23T00:48:53;6.55;;;3.15;;
22849;SDS011;11591;44.792;10.358;2023-03-23T00:51:22;9.25;;;3.45;;
22849;SDS011;11591;44.792;10.358;2023-03-23T00:53:49;7.00;;;3.10;;
22849;SDS011;11591;44.792;10.358;2023-03-23T00:56:15;5.65;;;3.15;;
22849;SDS011;11591;44.792;10.358;2023-03-23T00:58:41;5.88;;;3.30;;
22849;SDS011;11591;44.792;10.358;2023-03-23T01:01:07;5.28;;;2.92;;
22849;SDS011;11591;44.792;10.358;2023-03-23T01:03:34;5.78;;;3.03;;
22849;SDS011;11591;44.792;10.358;2023-03-23T01:06:04;6.80;;;3.28;;
22849;SDS011;11591;44.792;10.358;2023-03-23T01:08:33;5.07;;;3.10;;
22849;SDS011;11591;44.792;10.358;2023-03-23T01:11:02;4.75;;;2.88;;
22849;SDS011;11591;44.792;10.358;2023-03-23T01:13:31;5.75;;;3.10;;
22849;SDS011;11591;44.792;10.358;2023-03-23T01:15:56;4.57;;;2.70;;
22849;SDS011;11591;44.792;10.358;2023-03-23T01:18:22;4.95;;;3.17;;
22849;SDS011;11591;44.792;10.358;2023-03-23T01:20:48;4.78;;;2.72;;
22849;SDS011;11591;44.792;10.358;2023-03-23T01:23:14;3.97;;;3.00;;
22849;SDS011;11591;44.792;10.358;2023-03-23T01:25:40;4.82;;;2.92;;
22849;SDS011;11591;44.792;10.358;2023-03-23T01:28:06;11.18;;;2.58;;
22849;SDS011;11591;44.792;10.358;2023-03-23T01:30:32;4.50;;;2.63;;
22849;SDS011;11591;44.792;10.358;2023-03-23T01:32:57;7.13;;;2.50;;
22849;SDS011;11591;44.792;10.358;2023-03-23T01:35:23;4.28;;;2.95;;
22849;SDS011;11591;44.792;10.358;2023-03-23T01:37:51;8.13;;;3.00;;
22849;SDS011;11591;44.792;10.358;2023-03-23T01:40:17;4.25;;;2.80;;
22849;SDS011;11591;44.792;10.358;2023-03-23T01:42:43;6.20;;;2.20;;
22849;SDS011;11591;44.792;10.358;2023-03-23T01:47:45;4.80;;;2.25;;
22849;SDS011;11591;44.792;10.358;2023-03-23T01:50:13;4.22;;;2.25;;
22849;SDS011;11591;44.792;10.358;2023-03-23T01:52:39;4.03;;;2.10;;
22849;SDS011;11591;44.792;10.358;2023-03-23T01:55:06;7.88;;;2.65;;
22849;SDS011;11591;44.792;10.358;2023-03-23T01:57:32;4.35;;;2.15;;
22849;SDS011;11591;44.792;10.358;2023-03-23T02:00:02;5.32;;;2.20;;
22849;SDS011;11591;44.792;10.358;2023-03-23T02:02:43;4.95;;;2.20;;
22849;SDS011;11591;44.792;10.358;2023-03-23T02:05:14;6.57;;;2.10;;
22849;SDS011;11591;44.792;10.358;2023-03-23T02:07:47;3.13;;;1.98;;
22849;SDS011;11591;44.792;10.358;2023-03-23T02:10:14;5.70;;;1.88;;
22849;SDS011;11591;44.792;10.358;2023-03-23T02:12:42;4.57;;;1.70;;
22849;SDS011;11591;44.792;10.358;2023-03-23T02:15:09;2.85;;;1.98;;
22849;SDS011;11591;44.792;10.358;2023-03-23T02:17:51;3.78;;;1.80;;
22849;SDS011;11591;44.792;10.358;2023-03-23T02:34:07;7.72;;;2.22;;
22849;SDS011;11591;44.792;10.358;2023-03-23T02:36:50;4.10;;;2.30;;
22849;SDS011;11591;44.792;10.358;2023-03-23T02:42:25;5.50;;;2.13;;
22849;SDS011;11591;44.792;10.358;2023-03-23T02:44:57;8.00;;;2.70;;
22849;SDS011;11591;44.792;10.358;2023-03-23T02:47:29;6.00;;;2.20;;
22849;SDS011;11591;44.792;10.358;2023-03-23T02:49:56;5.40;;;2.30;;
22849;SDS011;11591;44.792;10.358;2023-03-23T02:52:30;4.03;;;2.22;;
22849;SDS011;11591;44.792;10.358;2023-03-23T02:54:58;3.38;;;2.20;;
22849;SDS011;11591;44.792;10.358;2023-03-23T02:57:27;4.07;;;2.67;;
22849;SDS011;11591;44.792;10.358;2023-03-23T02:59:56;6.18;;;2.55;;
22849;SDS011;11591;44.792;10.358;2023-03-23T03:02:27;7.18;;;2.65;;
22849;SDS011;11591;44.792;10.358;2023-03-23T03:05:06;3.85;;;2.70;;
22849;SDS011;11591;44.792;10.358;2023-03-23T03:08:02;4.18;;;2.42;;
22849;SDS011;11591;44.792;10.358;2023-03-23T03:15:53;5.35;;;2.30;;
22849;SDS011;11591;44.792;10.358;2023-03-23T03:18:26;4.07;;;2.30;;
22849;SDS011;11591;44.792;10.358;2023-03-23T03:20:59;6.78;;;2.58;;
22849;SDS011;11591;44.792;10.358;2023-03-23T03:23:33;3.40;;;2.38;;
22849;SDS011;11591;44.792;10.358;2023-03-23T03:26:02;3.78;;;2.20;;
22849;SDS011;11591;44.792;10.358;2023-03-23T03:28:44;4.13;;;2.08;;
22849;SDS011;11591;44.792;10.358;2023-03-23T03:31:13;7.93;;;2.38;;
22849;SDS011;11591;44.792;10.358;2023-03-23T03:33:43;3.40;;;2.15;;
22849;SDS011;11591;44.792;10.358;2023-03-23T03:36:14;5.43;;;2.42;;
22849;SDS011;11591;44.792;10.358;2023-03-23T03:38:51;4.00;;;2.30;;
22849;SDS011;11591;44.792;10.358;2023-03-23T03:41:19;5.15;;;2.30;;
22849;SDS011;11591;44.792;10.358;2023-03-23T03:43:46;5.60;;;2.28;;
22849;SDS011;11591;44.792;10.358;2023-03-23T03:46:12;5.88;;;3.10;;
22849;SDS011;11591;44.792;10.358;2023-03-23T03:48:38;15.02;;;4.93;;
22849;SDS011;11591;44.792;10.358;2023-03-23T03:51:04;15.65;;;6.90;;
22849;SDS011;11591;44.792;10.358;2023-03-23T03:53:34;17.58;;;6.38;;
22849;SDS011;11591;44.792;10.358;2023-03-23T03:56:00;16.20;;;7.13;;
22849;SDS011;11591;44.792;10.358;2023-03-23T03:58:32;16.02;;;6.88;;
22849;SDS011;11591;44.792;10.358;2023-03-23T04:01:10;18.98;;;7.30;;
22849;SDS011;11591;44.792;10.358;2023-03-23T04:03:38;17.85;;;7.95;;
22849;SDS011;11591;44.792;10.358;2023-03-23T04:06:10;17.20;;;7.20;;
22849;SDS011;11591;44.792;10.358;2023-03-23T04:08:38;15.00;;;7.03;;
22849;SDS011;11591;44.792;10.358;2023-03-23T04:11:06;16.65;;;6.65;;
22849;SDS011;11591;44.792;10.358;2023-03-23T04:13:34;14.23;;;5.95;;
22849;SDS011;11591;44.792;10.358;2023-03-23T04:16:20;14.60;;;6.28;;
22849;SDS011;11591;44.792;10.358;2023-03-23T04:18:47;12.43;;;5.20;;
22849;SDS011;11591;44.792;10.358;2023-03-23T04:21:15;18.02;;;8.02;;
22849;SDS011;11591;44.792;10.358;2023-03-23T04:23:43;24.83;;;9.25;;
22849;SDS011;11591;44.792;10.358;2023-03-23T04:26:09;19.38;;;8.10;;
22849;SDS011;11591;44.792;10.358;2023-03-23T04:28:41;22.02;;;9.35;;
22849;SDS011;11591;44.792;10.358;2023-03-23T04:31:26;24.95;;;9.63;;
22849;SDS011;11591;44.792;10.358;2023-03-23T04:34:01;27.23;;;10.15;;
22849;SDS011;11591;44.792;10.358;2023-03-23T04:36:34;23.90;;;9.75;;
22849;SDS011;11591;44.792;10.358;2023-03-23T04:39:08;24.83;;;10.48;;
22849;SDS011;11591;44.792;10.358;2023-03-23T04:41:36;23.98;;;11.25;;
22849;SDS011;11591;44.792;10.358;2023-03-23T04:44:31;33.58;;;13.45;;
22849;SDS011;11591;44.792;10.358;2023-03-23T04:47:03;27.15;;;11.95;;
22849;SDS011;11591;44.792;10.358;2023-03-23T04:49:33;32.78;;;12.52;;
22849;SDS011;11591;44.792;10.358;2023-03-23T04:52:11;28.67;;;12.95;;
22849;SDS011;11591;44.792;10.358;2023-03-23T04:54:48;27.83;;;12.80;;
22849;SDS011;11591;44.792;10.358;2023-03-23T04:57:15;30.60;;;13.35;;
22849;SDS011;11591;44.792;10.358;2023-03-23T04:59:49;30.50;;;12.70;;
22849;SDS011;11591;44.792;10.358;2023-03-23T05:02:20;35.83;;;13.75;;
22849;SDS011;11591;44.792;10.358;2023-03-23T05:04:47;26.40;;;12.50;;
22849;SDS011;11591;44.792;10.358;2023-03-23T05:07:18;26.90;;;12.15;;
22849;SDS011;11591;44.792;10.358;2023-03-23T05:09:47;29.45;;;12.68;;
22849;SDS011;11591;44.792;10.358;2023-03-23T05:12:15;29.83;;;12.25;;
22849;SDS011;11591;44.792;10.358;2023-03-23T05:15:01;29.73;;;12.32;;
22849;SDS011;11591;44.792;10.358;2023-03-23T05:17:30;28.08;;;11.60;;
22849;SDS011;11591;44.792;10.358;2023-03-23T05:19:59;32.10;;;11.77;;
22849;SDS011;11591;44.792;10.358;2023-03-23T05:22:38;24.67;;;11.60;;
22849;SDS011;11591;44.792;10.358;2023-03-23T05:25:06;27.13;;;11.20;;
22849;SDS011;11591;44.792;10.358;2023-03-23T05:27:40;24.77;;;11.63;;
22849;SDS011;11591;44.792;10.358;2023-03-23T05:30:20;30.27;;;11.75;;
22849;SDS011;11591;44.792;10.358;2023-03-23T05:32:47;25.65;;;11.98;;
22849;SDS011;11591;44.792;10.358;2023-03-23T05:35:38;29.40;;;12.23;;
22849;SDS011;11591;44.792;10.358;2023-03-23T05:38:04;26.73;;;11.65;;
22849;SDS011;11591;44.792;10.358;2023-03-23T05:40:30;25.95;;;11.93;;
22849;SDS011;11591;44.792;10.358;2023-03-23T05:43:02;30.02;;;11.60;;
22849;SDS011;11591;44.792;10.358;2023-03-23T05:45:39;24.83;;;11.43;;
22849;SDS011;11591;44.792;10.358;2023-03-23T05:48:05;23.98;;;11.10;;
22849;SDS011;11591;44.792;10.358;2023-03-23T05:50:31;24.00;;;10.90;;
22849;SDS011;11591;44.792;10.358;2023-03-23T05:52:58;27.15;;;10.98;;
22849;SDS011;11591;44.792;10.358;2023-03-23T05:55:25;29.42;;;11.10;;
22849;SDS011;11591;44.792;10.358;2023-03-23T05:58:04;22.10;;;10.82;;
22849;SDS011;11591;44.792;10.358;2023-03-23T06:00:34;22.67;;;10.85;;
22849;SDS011;11591;44.792;10.358;2023-03-23T06:03:15;19.95;;;10.00;;
22849;SDS011;11591;44.792;10.358;2023-03-23T06:05:54;23.23;;;9.98;;
22849;SDS011;11591;44.792;10.358;2023-03-23T06:08:26;19.50;;;9.65;;
22849;SDS011;11591;44.792;10.358;2023-03-23T06:10:52;23.80;;;10.07;;
22849;SDS011;11591;44.792;10.358;2023-03-23T06:13:18;20.20;;;9.63;;
22849;SDS011;11591;44.792;10.358;2023-03-23T06:15:47;19.35;;;9.70;;
22849;SDS011;11591;44.792;10.358;2023-03-23T06:18:27;20.70;;;8.95;;
22849;SDS011;11591;44.792;10.358;2023-03-23T06:21:17;22.48;;;9.05;;
22849;SDS011;11591;44.792;10.358;2023-03-23T06:24:00;16.65;;;8.43;;
22849;SDS011;11591;44.792;10.358;2023-03-23T06:26:33;24.85;;;13.43;;
22849;SDS011;11591;44.792;10.358;2023-03-23T06:29:04;17.50;;;9.18;;
22849;SDS011;11591;44.792;10.358;2023-03-23T06:31:40;21.35;;;9.05;;
22849;SDS011;11591;44.792;10.358;2023-03-23T06:34:10;19.88;;;9.23;;
22849;SDS011;11591;44.792;10.358;2023-03-23T06:36:55;18.35;;;8.63;;
22849;SDS011;11591;44.792;10.358;2023-03-23T06:39:44;16.85;;;8.68;;
22849;SDS011;11591;44.792;10.358;2023-03-23T06:42:31;21.33;;;7.65;;
22849;SDS011;11591;44.792;10.358;2023-03-23T06:45:16;19.77;;;7.93;;
22849;SDS011;11591;44.792;10.358;2023-03-23T06:47:46;25.58;;;8.23;;
22849;SDS011;11591;44.792;10.358;2023-03-23T06:50:14;24.20;;;9.77;;
22849;SDS011;11591;44.792;10.358;2023-03-23T06:52:44;20.20;;;8.75;;
22849;SDS011;11591;44.792;10.358;2023-03-23T06:55:12;20.15;;;8.82;;
22849;SDS011;11591;44.792;10.358;2023-03-23T06:57:38;19.48;;;9.00;;
22849;SDS011;11591;44.792;10.358;2023-03-23T07:00:05;22.15;;;9.50;;
22849;SDS011;11591;44.792;10.358;2023-03-23T07:02:42;22.40;;;9.30;;
22849;SDS011;11591;44.792;10.358;2023-03-23T07:05:10;19.83;;;9.05;;
22849;SDS011;11591;44.792;10.358;2023-03-23T07:07:37;22.27;;;8.93;;
22849;SDS011;11591;44.792;10.358;2023-03-23T07:10:16;21.83;;;8.65;;
22849;SDS011;11591;44.792;10.358;2023-03-23T07:12:43;19.48;;;9.00;;
22849;SDS011;11591;44.792;10.358;2023-03-23T07:15:09;19.05;;;9.48;;
22849;SDS011;11591;44.792;10.358;2023-03-23T07:17:38;24.40;;;9.43;;
22849;SDS011;11591;44.792;10.358;2023-03-23T07:20:13;15.95;;;8.65;;
22849;SDS011;11591;44.792;10.358;2023-03-23T07:22:40;19.95;;;8.68;;
22849;SDS011;11591;44.792;10.358;2023-03-23T07:25:16;18.52;;;8.88;;
22849;SDS011;11591;44.792;10.358;2023-03-23T07:27:52;18.17;;;8.55;;
22849;SDS011;11591;44.792;10.358;2023-03-23T07:30:18;16.90;;;8.38;;
22849;SDS011;11591;44.792;10.358;2023-03-23T07:32:44;19.75;;;8.75;;
22849;SDS011;11591;44.792;10.358;2023-03-23T07:35:10;19.77;;;8.45;;
22849;SDS011;11591;44.792;10.358;2023-03-23T07:37:54;17.63;;;8.13;;
22849;SDS011;11591;44.792;10.358;2023-03-23T07:40:21;24.45;;;9.00;;
22849;SDS011;11591;44.792;10.358;2023-03-23T07:42:51;18.63;;;9.13;;
22849;SDS011;11591;44.792;10.358;2023-03-23T07:45:33;28.27;;;8.05;;
22849;SDS011;11591;44.792;10.358;2023-03-23T07:47:59;16.05;;;8.38;;
22849;SDS011;11591;44.792;10.358;2023-03-23T07:50:25;18.83;;;9.75;;
22849;SDS011;11591;44.792;10.358;2023-03-23T07:52:54;25.75;;;9.75;;
22849;SDS011;11591;44.792;10.358;2023-03-23T07:55:22;23.52;;;10.90;;
22849;SDS011;11591;44.792;10.358;2023-03-23T07:57:59;24.58;;;10.60;;
22849;SDS011;11591;44.792;10.358;2023-03-23T08:00:25;18.65;;;9.68;;
22849;SDS011;11591;44.792;10.358;2023-03-23T08:02:53;24.60;;;11.02;;
22849;SDS011;11591;44.792;10.358;2023-03-23T08:05:35;24.05;;;11.38;;
22849;SDS011;11591;44.792;10.358;2023-03-23T08:08:20;23.58;;;10.95;;
22849;SDS011;11591;44.792;10.358;2023-03-23T08:11:26;23.88;;;11.38;;
22849;SDS011;11591;44.792;10.358;2023-03-23T08:14:13;22.48;;;10.23;;
22849;SDS011;11591;44.792;10.358;2023-03-23T08:16:59;28.35;;;10.00;;
22849;SDS011;11591;44.792;10.358;2023-03-23T08:19:51;20.98;;;10.68;;
22849;SDS011;11591;44.792;10.358;2023-03-23T08:22:44;21.38;;;11.43;;
22849;SDS011;11591;44.792;10.358;2023-03-23T08:25:28;25.23;;;11.30;;
22849;SDS011;11591;44.792;10.358;2023-03-23T08:28:15;28.40;;;10.73;;
22849;SDS011;11591;44.792;10.358;2023-03-23T08:31:07;24.10;;;11.25;;
22849;SDS011;11591;44.792;10.358;2023-03-23T08:33:53;21.15;;;11.13;;
22849;SDS011;11591;44.792;10.358;2023-03-23T08:36:36;27.05;;;10.77;;
22849;SDS011;11591;44.792;10.358;2023-03-23T08:39:25;23.90;;;11.35;;
22849;SDS011;11591;44.792;10.358;2023-03-23T08:42:10;24.55;;;9.75;;
22849;SDS011;11591;44.792;10.358;2023-03-23T08:44:50;26.58;;;11.13;;
22849;SDS011;11591;44.792;10.358;2023-03-23T08:47:34;27.13;;;11.35;;
22849;SDS011;11591;44.792;10.358;2023-03-23T08:50:19;20.83;;;11.23;;
22849;SDS011;11591;44.792;10.358;2023-03-23T08:53:04;19.88;;;10.73;;
22849;SDS011;11591;44.792;10.358;2023-03-23T08:55:33;23.70;;;10.40;;
22849;SDS011;11591;44.792;10.358;2023-03-23T08:58:18;22.25;;;10.07;;
22849;SDS011;11591;44.792;10.358;2023-03-23T09:01:04;19.38;;;10.07;;
22849;SDS011;11591;44.792;10.358;2023-03-23T09:03:43;15.52;;;9.48;;
22849;SDS011;11591;44.792;10.358;2023-03-23T09:06:22;14.63;;;9.32;;
22849;SDS011;11591;44.792;10.358;2023-03-23T09:08:47;19.10;;;9.32;;
22849;SDS011;11591;44.792;10.358;2023-03-23T09:11:13;20.48;;;9.88;;
22849;SDS011;11591;44.792;10.358;2023-03-23T09:13:39;21.42;;;10.63;;
22849;SDS011;11591;44.792;10.358;2023-03-23T09:16:06;20.95;;;10.55;;
22849;SDS011;11591;44.792;10.358;2023-03-23T09:18:33;19.98;;;9.73;;
22849;SDS011;11591;44.792;10.358;2023-03-23T09:21:00;18.23;;;10.18;;
22849;SDS011;11591;44.792;10.358;2023-03-23T09:23:27;18.85;;;9.75;;
22849;SDS011;11591;44.792;10.358;2023-03-23T09:25:54;27.40;;;10.65;;
22849;SDS011;11591;44.792;10.358;2023-03-23T09:28:20;23.40;;;9.82;;
22849;SDS011;11591;44.792;10.358;2023-03-23T09:30:46;16.45;;;9.02;;
22849;SDS011;11591;44.792;10.358;2023-03-23T09:33:12;20.92;;;9.93;;
22849;SDS011;11591;44.792;10.358;2023-03-23T09:35:39;19.20;;;8.52;;
22849;SDS011;11591;44.792;10.358;2023-03-23T09:38:06;16.15;;;8.50;;
22849;SDS011;11591;44.792;10.358;2023-03-23T09:40:46;15.07;;;8.90;;
22849;SDS011;11591;44.792;10.358;2023-03-23T09:49:10;15.95;;;8.52;;
22849;SDS011;11591;44.792;10.358;2023-03-23T09:51:57;18.20;;;9.15;;
22849;SDS011;11591;44.792;10.358;2023-03-23T09:54:37;16.23;;;9.25;;
22849;SDS011;11591;44.792;10.358;2023-03-23T09:57:10;19.15;;;9.18;;
22849;SDS011;11591;44.792;10.358;2023-03-23T10:07:43;19.23;;;8.93;;
22849;SDS011;11591;44.792;10.358;2023-03-23T10:10:12;16.77;;;8.60;;
22849;SDS011;11591;44.792;10.358;2023-03-23T10:15:18;13.38;;;7.18;;
22849;SDS011;11591;44.792;10.358;2023-03-23T10:26:08;14.60;;;8.63;;
22849;SDS011;11591;44.792;10.358;2023-03-23T10:28:41;17.17;;;8.13;;
22849;SDS011;11591;44.792;10.358;2023-03-23T10:31:10;19.33;;;8.90;;
22849;SDS011;11591;44.792;10.358;2023-03-23T10:33:47;25.90;;;12.32;;
22849;SDS011;11591;44.792;10.358;2023-03-23T10:39:19;22.38;;;10.57;;
22849;SDS011;11591;44.792;10.358;2023-03-23T10:41:46;19.90;;;11.25;;
22849;SDS011;11591;44.792;10.358;2023-03-23T10:44:23;19.98;;;10.50;;
22849;SDS011;11591;44.792;10.358;2023-03-23T10:49:26;18.42;;;10.40;;
22849;SDS011;11591;44.792;10.358;2023-03-23T10:54:52;20.10;;;10.77;;
22849;SDS011;11591;44.792;10.358;2023-03-23T10:57:23;15.77;;;9.85;;
22849;SDS011;11591;44.792;10.358;2023-03-23T10:59:57;24.52;;;9.73;;
22849;SDS011;11591;44.792;10.358;2023-03-23T11:02:26;20.10;;;12.20;;
22849;SDS011;11591;44.792;10.358;2023-03-23T11:04:54;17.30;;;9.68;;
22849;SDS011;11591;44.792;10.358;2023-03-23T11:07:26;19.17;;;9.57;;
22849;SDS011;11591;44.792;10.358;2023-03-23T11:09:55;17.73;;;10.73;;
22849;SDS011;11591;44.792;10.358;2023-03-23T11:12:23;16.40;;;9.23;;
22849;SDS011;11591;44.792;10.358;2023-03-23T11:14:51;18.45;;;9.73;;
22849;SDS011;11591;44.792;10.358;2023-03-23T11:17:21;15.45;;;9.60;;
22849;SDS011;11591;44.792;10.358;2023-03-23T11:19:52;17.48;;;8.55;;
22849;SDS011;11591;44.792;10.358;2023-03-23T11:22:31;17.00;;;10.00;;
22849;SDS011;11591;44.792;10.358;2023-03-23T11:25:02;15.63;;;8.68;;
22849;SDS011;11591;44.792;10.358;2023-03-23T11:27:30;17.90;;;8.00;;
22849;SDS011;11591;44.792;10.358;2023-03-23T11:30:01;15.57;;;9.30;;
22849;SDS011;11591;44.792;10.358;2023-03-23T11:32:34;16.55;;;9.45;;
22849;SDS011;11591;44.792;10.358;2023-03-23T11:35:03;15.57;;;9.20;;
22849;SDS011;11591;44.792;10.358;2023-03-23T11:37:43;15.98;;;9.60;;
22849;SDS011;11591;44.792;10.358;2023-03-23T11:40:17;23.48;;;13.38;;
22849;SDS011;11591;44.792;10.358;2023-03-23T11:42:49;18.45;;;10.55;;
22849;SDS011;11591;44.792;10.358;2023-03-23T11:45:19;19.52;;;11.45;;
22849;SDS011;11591;44.792;10.358;2023-03-23T11:50:51;15.43;;;9.27;;
22849;SDS011;11591;44.792;10.358;2023-03-23T11:58:35;17.73;;;9.52;;
22849;SDS011;11591;44.792;10.358;2023-03-23T12:01:48;16.63;;;9.85;;
22849;SDS011;11591;44.792;10.358;2023-03-23T12:06:53;18.55;;;9.93;;
22849;SDS011;11591;44.792;10.358;2023-03-23T12:09:47;17.33;;;9.73;;
22849;SDS011;11591;44.792;10.358;2023-03-23T12:14:47;16.20;;;10.05;;
22849;SDS011;11591;44.792;10.358;2023-03-23T12:30:31;16.02;;;8.43;;
22849;SDS011;11591;44.792;10.358;2023-03-23T12:44:10;15.82;;;8.85;;
22849;SDS011;11591;44.792;10.358;2023-03-23T12:51:51;16.27;;;9.23;;
22849;SDS011;11591;44.792;10.358;2023-03-23T12:57:08;14.65;;;8.60;;
22849;SDS011;11591;44.792;10.358;2023-03-23T13:10:50;18.63;;;9.60;;
22849;SDS011;11591;44.792;10.358;2023-03-23T13:13:22;18.80;;;9.55;;
22849;SDS011;11591;44.792;10.358;2023-03-23T13:21:41;20.55;;;9.45;;
22849;SDS011;11591;44.792;10.358;2023-03-23T13:24:17;17.27;;;9.27;;
22849;SDS011;11591;44.792;10.358;2023-03-23T13:26:45;22.05;;;10.10;;
22849;SDS011;11591;44.792;10.358;2023-03-23T13:29:19;21.52;;;10.13;;
22849;SDS011;11591;44.792;10.358;2023-03-23T13:31:49;20.30;;;10.25;;
22849;SDS011;11591;44.792;10.358;2023-03-23T13:34:20;21.77;;;10.02;;
22849;SDS011;11591;44.792;10.358;2023-03-23T13:39:27;17.33;;;9.52;;
22849;SDS011;11591;44.792;10.358;2023-03-23T13:42:05;18.85;;;10.52;;
22849;SDS011;11591;44.792;10.358;2023-03-23T13:49:49;17.17;;;10.27;;
22849;SDS011;11591;44.792;10.358;2023-03-23T13:52:36;19.75;;;11.18;;
22849;SDS011;11591;44.792;10.358;2023-03-23T14:03:01;19.95;;;11.60;;
22849;SDS011;11591;44.792;10.358;2023-03-23T14:05:45;16.23;;;10.13;;
22849;SDS011;11591;44.792;10.358;2023-03-23T14:13:38;23.23;;;12.60;;
22849;SDS011;11591;44.792;10.358;2023-03-23T14:16:24;21.98;;;12.13;;
22849;SDS011;11591;44.792;10.358;2023-03-23T14:19:00;21.10;;;11.85;;
22849;SDS011;11591;44.792;10.358;2023-03-23T14:24:23;25.45;;;12.15;;
22849;SDS011;11591;44.792;10.358;2023-03-23T14:26:49;19.83;;;10.20;;
22849;SDS011;11591;44.792;10.358;2023-03-23T14:29:17;19.02;;;11.15;;
22849;SDS011;11591;44.792;10.358;2023-03-23T14:31:45;18.48;;;10.98;;
22849;SDS011;11591;44.792;10.358;2023-03-23T14:34:21;18.83;;;11.88;;
22849;SDS011;11591;44.792;10.358;2023-03-23T14:36:51;19.00;;;12.05;;
22849;SDS011;11591;44.792;10.358;2023-03-23T14:42:04;19.48;;;11.27;;
22849;SDS011;11591;44.792;10.358;2023-03-23T14:44:36;18.33;;;11.80;;
22849;SDS011;11591;44.792;10.358;2023-03-23T14:47:07;18.42;;;11.75;;
22849;SDS011;11591;44.792;10.358;2023-03-23T14:49:41;21.08;;;11.38;;
22849;SDS011;11591;44.792;10.358;2023-03-23T14:52:12;15.55;;;9.80;;
22849;SDS011;11591;44.792;10.358;2023-03-23T14:54:40;19.75;;;11.80;;
22849;SDS011;11591;44.792;10.358;2023-03-23T14:59:39;17.35;;;10.25;;
22849;SDS011;11591;44.792;10.358;2023-03-23T15:02:08;17.10;;;9.82;;
22849;SDS011;11591;44.792;10.358;2023-03-23T15:04:38;18.05;;;10.13;;
22849;SDS011;11591;44.792;10.358;2023-03-23T15:07:04;19.85;;;10.20;;
22849;SDS011;11591;44.792;10.358;2023-03-23T15:09:31;17.02;;;10.68;;
22849;SDS011;11591;44.792;10.358;2023-03-23T15:12:00;16.48;;;11.13;;
22849;SDS011;11591;44.792;10.358;2023-03-23T15:14:29;18.67;;;9.98;;
22849;SDS011;11591;44.792;10.358;2023-03-23T15:16:58;16.45;;;10.23;;
22849;SDS011;11591;44.792;10.358;2023-03-23T15:19:27;18.17;;;12.15;;
22849;SDS011;11591;44.792;10.358;2023-03-23T15:22:13;18.48;;;11.77;;
22849;SDS011;11591;44.792;10.358;2023-03-23T15:24:45;18.23;;;11.13;;
22849;SDS011;11591;44.792;10.358;2023-03-23T15:27:30;18.00;;;11.98;;
22849;SDS011;11591;44.792;10.358;2023-03-23T15:29:59;19.90;;;11.60;;
22849;SDS011;11591;44.792;10.358;2023-03-23T15:32:38;23.30;;;12.18;;
22849;SDS011;11591;44.792;10.358;2023-03-23T15:35:15;22.13;;;11.20;;
22849;SDS011;11591;44.792;10.358;2023-03-23T15:37:44;22.08;;;11.68;;
22849;SDS011;11591;44.792;10.358;2023-03-23T15:40:14;21.35;;;11.30;;
22849;SDS011;11591;44.792;10.358;2023-03-23T15:42:41;16.13;;;9.93;;
22849;SDS011;11591;44.792;10.358;2023-03-23T15:47:46;17.77;;;10.15;;
22849;SDS011;11591;44.792;10.358;2023-03-23T15:52:51;17.13;;;9.95;;
22849;SDS011;11591;44.792;10.358;2023-03-23T15:57:49;16.17;;;9.68;;
22849;SDS011;11591;44.792;10.358;2023-03-23T16:00:17;19.08;;;10.80;;
22849;SDS011;11591;44.792;10.358;2023-03-23T16:02:45;18.77;;;10.57;;
22849;SDS011;11591;44.792;10.358;2023-03-23T16:05:17;18.25;;;10.88;;
22849;SDS011;11591;44.792;10.358;2023-03-23T16:07:42;19.02;;;10.85;;
22849;SDS011;11591;44.792;10.358;2023-03-23T16:10:19;23.98;;;11.80;;
22849;SDS011;11591;44.792;10.358;2023-03-23T16:12:46;23.70;;;11.55;;
22849;SDS011;11591;44.792;10.358;2023-03-23T16:15:12;22.40;;;11.50;;
22849;SDS011;11591;44.792;10.358;2023-03-23T16:17:38;22.23;;;10.60;;
22849;SDS011;11591;44.792;10.358;2023-03-23T16:20:09;21.67;;;11.55;;
22849;SDS011;11591;44.792;10.358;2023-03-23T16:22:37;19.58;;;11.73;;
22849;SDS011;11591;44.792;10.358;2023-03-23T16:25:03;27.65;;;10.98;;
22849;SDS011;11591;44.792;10.358;2023-03-23T16:27:29;21.33;;;10.20;;
22849;SDS011;11591;44.792;10.358;2023-03-23T16:29:55;21.00;;;11.13;;
22849;SDS011;11591;44.792;10.358;2023-03-23T16:32:22;24.75;;;10.77;;
22849;SDS011;11591;44.792;10.358;2023-03-23T16:34:48;20.25;;;11.23;;
22849;SDS011;11591;44.792;10.358;2023-03-23T16:37:14;20.77;;;10.73;;
22849;SDS011;11591;44.792;10.358;2023-03-23T16:39:40;22.27;;;10.70;;
22849;SDS011;11591;44.792;10.358;2023-03-23T16:42:06;19.73;;;10.40;;
22849;SDS011;11591;44.792;10.358;2023-03-23T16:44:32;20.20;;;9.98;;
22849;SDS011;11591;44.792;10.358;2023-03-23T16:46:58;16.27;;;9.02;;
22849;SDS011;11591;44.792;10.358;2023-03-23T16:49:23;17.50;;;9.80;;
22849;SDS011;11591;44.792;10.358;2023-03-23T16:51:49;19.63;;;9.30;;
22849;SDS011;11591;44.792;10.358;2023-03-23T16:54:15;17.48;;;9.10;;
22849;SDS011;11591;44.792;10.358;2023-03-23T16:56:41;18.08;;;9.00;;
22849;SDS011;11591;44.792;10.358;2023-03-23T16:59:11;19.83;;;9.23;;
22849;SDS011;11591;44.792;10.358;2023-03-23T17:01:37;17.08;;;9.02;;
22849;SDS011;11591;44.792;10.358;2023-03-23T17:04:03;19.67;;;9.02;;
22849;SDS011;11591;44.792;10.358;2023-03-23T17:06:29;19.02;;;9.15;;
22849;SDS011;11591;44.792;10.358;2023-03-23T17:08:55;22.60;;;9.00;;
22849;SDS011;11591;44.792;10.358;2023-03-23T17:11:21;17.95;;;9.18;;
22849;SDS011;11591;44.792;10.358;2023-03-23T17:13:47;22.60;;;8.27;;
22849;SDS011;11591;44.792;10.358;2023-03-23T17:16:13;21.10;;;9.13;;
22849;SDS011;11591;44.792;10.358;2023-03-23T17:18:38;21.02;;;8.70;;
22849;SDS011;11591;44.792;10.358;2023-03-23T17:21:04;19.25;;;8.35;;
22849;SDS011;11591;44.792;10.358;2023-03-23T17:23:31;20.65;;;9.48;;
22849;SDS011;11591;44.792;10.358;2023-03-23T17:25:57;18.70;;;9.15;;